createdAt,value
2019-01-10T00:02:17.894Z,80.39
2019-01-10T00:04:49.827Z,80.34
2019-01-10T00:07:25.844Z,80.57
2019-01-10T00:09:57.836Z,80.45
2019-01-10T00:12:39.207Z,80.52
2019-01-10T00:15:11.441Z,80.69
2019-01-10T00:17:43.483Z,80.72
2019-01-10T00:20:16.818Z,80.85
2019-01-10T00:22:48.810Z,80.72
2019-01-10T00:25:20.747Z,80.95
2019-01-10T00:27:55.028Z,80.94
2019-01-10T00:30:27.021Z,80.97
2019-01-10T00:32:58.975Z,80.73
2019-01-10T00:35:30.900Z,80.66
2019-01-10T00:38:02.883Z,80.49
2019-01-10T00:40:34.809Z,80.30
2019-01-10T00:43:06.804Z,80.50
2019-01-10T00:45:38.746Z,80.52
2019-01-10T00:48:10.723Z,80.48
2019-01-10T00:50:42.674Z,80.57
2019-01-10T00:53:17.139Z,80.55
2019-01-10T00:55:52.245Z,80.53
2019-01-10T00:58:24.213Z,80.39
2019-01-10T01:00:58.246Z,80.35
2019-01-10T01:03:30.297Z,80.38
2019-01-10T01:06:05.308Z,80.35
2019-01-10T01:08:37.265Z,80.41
2019-01-10T01:11:09.224Z,80.25
2019-01-10T01:13:41.140Z,80.41
2019-01-10T01:16:13.092Z,80.43
2019-01-10T01:18:45.014Z,80.02
2019-01-10T01:21:17.143Z,80.23
2019-01-10T01:23:49.082Z,80.17
2019-01-10T01:26:21.053Z,80.22
2019-01-10T01:28:52.987Z,80.18
2019-01-10T01:31:24.927Z,80.33
2019-01-10T01:33:56.928Z,80.44
2019-01-10T01:36:28.887Z,80.45
2019-01-10T01:39:01.908Z,80.26
2019-01-10T01:41:35.336Z,80.31
2019-01-10T01:44:07.262Z,80.60
2019-01-10T01:46:40.369Z,80.71
2019-01-10T01:49:12.251Z,80.79
2019-01-10T01:51:45.854Z,80.77
2019-01-10T01:54:22.181Z,80.68
2019-01-10T01:56:54.192Z,80.62
2019-01-10T01:59:26.112Z,80.73
2019-01-10T02:01:58.150Z,80.74
2019-01-10T02:04:30.080Z,80.75
2019-01-10T02:07:03.371Z,80.68
2019-01-10T02:09:35.278Z,80.77
2019-01-10T02:12:10.472Z,80.89
2019-01-10T02:14:42.399Z,80.83
2019-01-10T02:17:14.359Z,80.53
2019-01-10T02:19:46.299Z,80.49
2019-01-10T02:22:18.368Z,80.53
2019-01-10T02:24:51.955Z,80.46
2019-01-10T02:27:23.915Z,80.54
2019-01-10T02:29:55.858Z,80.59
2019-01-10T02:32:27.788Z,80.44
2019-01-10T02:34:59.733Z,80.27
2019-01-10T02:37:31.689Z,80.36
2019-01-10T02:40:05.088Z,80.32
2019-01-10T02:42:37.055Z,80.42
2019-01-10T02:45:10.202Z,80.31
2019-01-10T02:47:42.152Z,80.22
2019-01-10T02:50:18.377Z,80.44
2019-01-10T02:52:50.767Z,80.41
2019-01-10T02:55:22.684Z,80.50
2019-01-10T02:57:54.623Z,80.53
2019-01-10T03:00:27.273Z,80.56
2019-01-10T03:02:59.230Z,80.50
2019-01-10T03:05:31.144Z,80.36
2019-01-10T03:08:03.072Z,80.29
2019-01-10T03:10:35.022Z,80.19
2019-01-10T03:13:06.943Z,80.11
2019-01-10T03:15:38.886Z,80.03
2019-01-10T03:18:10.833Z,80.11
2019-01-10T03:20:45.307Z,80.02
2019-01-10T03:23:17.227Z,79.87
2019-01-10T03:25:49.159Z,80.07
2019-01-10T03:28:21.099Z,79.92
2019-01-10T03:30:53.097Z,79.72
2019-01-10T03:33:25.025Z,79.85
2019-01-10T03:35:56.993Z,79.87
2019-01-10T03:38:28.960Z,79.99
2019-01-10T03:41:00.940Z,79.98
2019-01-10T03:43:32.986Z,79.87
2019-01-10T03:46:05.300Z,79.85
2019-01-10T03:48:39.992Z,79.84
2019-01-10T03:51:12.020Z,79.75
2019-01-10T03:53:43.928Z,79.87
2019-01-10T03:56:15.994Z,79.80
2019-01-10T03:58:47.900Z,79.65
2019-01-10T04:01:19.864Z,79.81
2019-01-10T04:03:52.267Z,79.76
2019-01-10T04:06:24.220Z,79.84
2019-01-10T04:08:56.155Z,80.09
2019-01-10T04:11:28.103Z,80.28
2019-01-10T04:14:00.043Z,80.33
2019-01-10T04:16:32.001Z,80.23
2019-01-10T04:19:03.953Z,80.07
2019-01-10T04:21:35.859Z,80.12
2019-01-10T04:24:07.796Z,80.21
2019-01-10T04:26:40.711Z,80.12
2019-01-10T04:29:12.699Z,80.10
2019-01-10T04:31:45.027Z,79.93
2019-01-10T04:34:19.042Z,80.24
2019-01-10T04:36:53.273Z,80.29
2019-01-10T04:39:25.250Z,80.30
2019-01-10T04:42:00.160Z,80.39
2019-01-10T04:44:33.860Z,80.44
2019-01-10T04:47:09.823Z,80.43
2019-01-10T04:49:44.669Z,80.46
2019-01-10T04:52:19.147Z,80.38
2019-01-10T04:54:51.130Z,80.23
2019-01-10T04:57:27.814Z,80.54
2019-01-10T05:00:00.169Z,80.40
2019-01-10T05:02:32.129Z,80.38
2019-01-10T05:05:04.158Z,79.99
2019-01-10T05:07:37.891Z,80.13
2019-01-10T05:10:10.865Z,79.83
2019-01-10T05:12:42.798Z,80.00
2019-01-10T05:15:15.165Z,80.18
2019-01-10T05:17:47.101Z,80.31
2019-01-10T05:20:22.945Z,80.27
2019-01-10T05:22:54.851Z,80.22
2019-01-10T05:25:26.799Z,80.19
2019-01-10T05:27:58.798Z,80.05
2019-01-10T05:30:31.748Z,80.10
2019-01-10T05:33:04.784Z,80.07
2019-01-10T05:35:36.760Z,79.84
2019-01-10T05:38:08.674Z,80.09
2019-01-10T05:40:40.621Z,79.95
2019-01-10T05:43:14.192Z,79.71
2019-01-10T05:45:46.126Z,79.68
2019-01-10T05:48:18.124Z,79.61
2019-01-10T05:50:49.751Z,79.46
2019-01-10T05:53:21.678Z,79.55
2019-01-10T05:55:54.759Z,79.46
2019-01-10T05:58:26.698Z,79.44
2019-01-10T06:00:58.617Z,79.35
2019-01-10T06:03:30.654Z,79.50
2019-01-10T06:06:02.654Z,79.30
2019-01-10T06:08:34.608Z,78.99
2019-01-10T06:11:06.505Z,79.21
2019-01-10T06:13:38.445Z,79.30
2019-01-10T06:16:13.679Z,79.08
2019-01-10T06:18:45.715Z,78.72
2019-01-10T06:21:17.619Z,79.18
2019-01-10T06:23:49.591Z,79.36
2019-01-10T06:26:22.576Z,78.94
2019-01-10T06:28:54.511Z,78.42
2019-01-10T06:31:26.416Z,78.63
2019-01-10T06:33:58.319Z,79.20
2019-01-10T06:36:30.269Z,79.63
2019-01-10T06:39:02.155Z,79.56
2019-01-10T06:41:34.128Z,79.42
2019-01-10T06:44:06.142Z,79.43
2019-01-10T06:46:39.067Z,79.29
2019-01-10T06:49:13.832Z,79.31
2019-01-10T06:51:47.008Z,79.03
2019-01-10T06:54:18.897Z,78.72
2019-01-10T06:56:50.855Z,78.78
2019-01-10T06:59:27.694Z,79.33
2019-01-10T07:01:59.608Z,79.30
2019-01-10T07:04:31.569Z,79.22
2019-01-10T07:07:06.244Z,79.37
2019-01-10T07:09:38.140Z,79.14
2019-01-10T07:12:10.077Z,79.09
2019-01-10T07:14:42.385Z,79.22
2019-01-10T07:17:15.944Z,79.29
2019-01-10T07:19:49.265Z,79.06
2019-01-10T07:22:27.485Z,79.15
2019-01-10T07:25:01.055Z,79.30
2019-01-10T07:27:34.498Z,79.47
2019-01-10T07:30:09.220Z,79.63
2019-01-10T07:32:42.098Z,79.61
2019-01-10T07:35:16.763Z,79.62
2019-01-10T07:37:57.277Z,79.51
2019-01-10T07:40:29.600Z,79.40
2019-01-10T07:43:01.505Z,79.43
2019-01-10T07:45:33.436Z,79.50
2019-01-10T07:48:08.995Z,79.76
2019-01-10T07:50:40.924Z,79.67
2019-01-10T07:53:12.864Z,79.54
2019-01-10T07:55:44.804Z,79.48
2019-01-10T07:58:16.699Z,79.37
2019-01-10T08:00:48.648Z,79.33
2019-01-10T08:03:21.653Z,79.36
2019-01-10T08:05:58.393Z,79.65
2019-01-10T08:08:33.631Z,79.57
2019-01-10T08:11:05.713Z,79.54
2019-01-10T08:13:40.714Z,79.70
2019-01-10T08:16:14.971Z,79.68
2019-01-10T08:18:46.897Z,79.67
2019-01-10T08:21:18.815Z,79.48
2019-01-10T08:23:56.178Z,79.65
2019-01-10T08:26:24.386Z,79.52
2019-01-10T08:29:02.240Z,79.57
2019-01-10T08:31:35.786Z,79.54
2019-01-10T08:34:08.937Z,79.53
2019-01-10T08:36:40.854Z,79.45
2019-01-10T08:39:13.109Z,79.51
2019-01-10T08:41:45.042Z,79.39
2019-01-10T08:44:17.020Z,78.96
2019-01-10T08:46:48.955Z,78.99
2019-01-10T08:49:20.866Z,78.98
2019-01-10T08:51:52.821Z,79.14
2019-01-10T08:54:24.717Z,79.12
2019-01-10T08:56:56.726Z,78.77
2019-01-10T08:59:31.648Z,78.56
2019-01-10T09:02:03.633Z,78.80
2019-01-10T09:04:36.722Z,78.60
2019-01-10T09:07:08.681Z,78.55
2019-01-10T09:09:40.626Z,78.55
2019-01-10T09:12:12.599Z,78.42
2019-01-10T09:14:52.999Z,78.28
2019-01-10T09:17:24.951Z,78.47
2019-01-10T09:19:56.864Z,78.37
2019-01-10T09:22:28.832Z,78.11
2019-01-10T09:25:00.757Z,78.20
2019-01-10T09:27:32.711Z,78.17
2019-01-10T09:30:05.453Z,77.95
2019-01-10T09:32:37.428Z,78.04
2019-01-10T09:35:11.535Z,78.41
2019-01-10T09:37:43.507Z,78.44
2019-01-10T09:40:18.061Z,78.26
2019-01-10T09:42:49.999Z,78.03
2019-01-10T09:45:25.378Z,77.90
2019-01-10T09:47:58.974Z,77.74
2019-01-10T09:50:30.904Z,78.06
2019-01-10T09:53:02.844Z,78.29
2019-01-10T09:55:34.830Z,78.20
2019-01-10T09:58:06.811Z,78.29
2019-01-10T10:00:38.715Z,78.29
2019-01-10T10:03:10.654Z,78.37
2019-01-10T10:05:42.592Z,78.38
2019-01-10T10:08:17.597Z,78.04
2019-01-10T10:10:49.521Z,77.91
2019-01-10T10:13:21.477Z,78.06
2019-01-10T10:15:56.134Z,77.59
2019-01-10T10:18:28.046Z,77.57
2019-01-10T10:20:59.992Z,77.67
2019-01-10T10:23:33.020Z,77.47
2019-01-10T10:26:05.041Z,77.47
2019-01-10T10:28:38.582Z,77.27
2019-01-10T10:31:10.513Z,77.12
2019-01-10T10:33:42.461Z,77.44
2019-01-10T10:36:16.004Z,77.46
2019-01-10T10:38:51.008Z,77.08
2019-01-10T10:41:24.520Z,77.19
2019-01-10T10:43:56.465Z,77.10
2019-01-10T10:46:31.659Z,77.18
2019-01-10T10:49:03.618Z,77.39
2019-01-10T10:51:37.048Z,77.46
2019-01-10T10:54:12.176Z,76.85
2019-01-10T10:56:42.664Z,77.28
2019-01-10T10:59:14.597Z,77.13
2019-01-10T11:01:47.563Z,77.34
2019-01-10T11:04:24.571Z,76.92
2019-01-10T11:06:59.568Z,76.88
2019-01-10T11:09:30.113Z,76.88
2019-01-10T11:12:02.033Z,76.67
2019-01-10T11:14:35.418Z,76.16
2019-01-10T11:17:09.051Z,75.75
2019-01-10T11:19:41.318Z,76.17
2019-01-10T11:22:13.293Z,75.36
2019-01-10T11:24:45.377Z,75.56
2019-01-10T11:27:17.472Z,75.21
2019-01-10T11:29:49.459Z,75.41
2019-01-10T11:32:21.430Z,75.92
2019-01-10T11:34:53.376Z,76.33
2019-01-10T11:37:25.336Z,76.52
2019-01-10T11:39:57.365Z,76.50
2019-01-10T11:42:32.063Z,76.92
2019-01-10T11:45:10.035Z,76.43
2019-01-10T11:47:41.987Z,76.59
2019-01-10T11:50:15.725Z,75.89
2019-01-10T11:52:51.707Z,76.41
2019-01-10T11:55:23.653Z,76.84
2019-01-10T11:57:59.407Z,76.53
2019-01-10T12:00:33.997Z,75.81
2019-01-10T12:03:08.104Z,75.57
2019-01-10T12:05:47.849Z,75.79
2019-01-10T12:08:18.367Z,75.50
2019-01-10T12:10:50.314Z,75.74
2019-01-10T12:13:22.237Z,75.71
2019-01-10T12:15:54.215Z,76.09
2019-01-10T12:18:26.102Z,75.55
2019-01-10T12:20:58.065Z,75.08
2019-01-10T12:23:29.948Z,75.24
2019-01-10T12:26:01.983Z,75.44
2019-01-10T12:28:33.899Z,74.99
2019-01-10T12:31:05.834Z,75.32
2019-01-10T12:33:39.071Z,75.36
2019-01-10T12:36:11.072Z,75.33
2019-01-10T12:38:43.021Z,75.46
2019-01-10T12:41:15.013Z,75.24
2019-01-10T12:43:46.937Z,75.44
2019-01-10T12:46:18.885Z,75.00
2019-01-10T12:48:54.089Z,75.77
2019-01-10T12:51:26.022Z,75.29
2019-01-10T12:53:57.938Z,74.80
2019-01-10T12:56:32.462Z,74.96
2019-01-10T12:59:04.361Z,74.53
2019-01-10T13:01:38.706Z,74.79
2019-01-10T13:04:10.609Z,75.27
2019-01-10T13:06:42.550Z,74.46
2019-01-10T13:09:14.479Z,74.84
2019-01-10T13:11:46.563Z,75.04
2019-01-10T13:14:19.574Z,74.12
2019-01-10T13:16:51.551Z,75.21
2019-01-10T13:19:23.448Z,75.48
2019-01-10T13:21:55.460Z,75.56
2019-01-10T13:24:27.397Z,75.35
2019-01-10T13:26:59.355Z,75.50
2019-01-10T13:29:34.357Z,74.91
2019-01-10T13:32:06.309Z,74.79
2019-01-10T13:34:38.487Z,74.18
2019-01-10T13:37:10.554Z,74.19
2019-01-10T13:39:43.914Z,74.78
2019-01-10T13:42:19.119Z,74.91
2019-01-10T13:44:51.111Z,74.66
2019-01-10T13:47:23.057Z,74.28
2019-01-10T13:49:55.104Z,73.83
2019-01-10T13:52:27.114Z,74.05
2019-01-10T13:54:59.088Z,74.29
2019-01-10T13:57:33.988Z,74.11
2019-01-10T14:00:10.396Z,74.12
2019-01-10T14:02:44.208Z,73.80
2019-01-10T14:05:16.197Z,73.36
2019-01-10T14:07:48.131Z,73.89
2019-01-10T14:10:20.450Z,74.47
2019-01-10T14:12:55.361Z,74.93
2019-01-10T14:15:30.827Z,74.52
2019-01-10T14:18:04.603Z,74.15
2019-01-10T14:20:36.658Z,73.44
2019-01-10T14:23:14.241Z,73.11
2019-01-10T14:25:46.270Z,73.87
2019-01-10T14:28:18.209Z,72.90
2019-01-10T14:30:50.185Z,73.43
2019-01-10T14:33:22.109Z,73.17
2019-01-10T14:35:54.282Z,73.51
2019-01-10T14:38:27.540Z,72.23
2019-01-10T14:41:05.670Z,72.28
2019-01-10T14:43:37.585Z,71.57
2019-01-10T14:46:09.719Z,72.34
2019-01-10T14:48:43.518Z,72.21
2019-01-10T14:51:15.535Z,72.79
2019-01-10T14:53:47.434Z,72.47
2019-01-10T14:56:19.379Z,71.33
2019-01-10T14:58:53.822Z,72.04
2019-01-10T15:01:25.795Z,73.00
2019-01-10T15:04:02.522Z,72.82
2019-01-10T15:06:37.295Z,72.38
2019-01-10T15:09:10.982Z,71.80
2019-01-10T15:11:42.906Z,71.64
2019-01-10T15:14:17.589Z,72.60
2019-01-10T15:16:49.535Z,73.30
2019-01-10T15:19:21.478Z,73.09
2019-01-10T15:21:53.432Z,72.97
2019-01-10T15:24:27.013Z,72.70
2019-01-10T15:26:58.919Z,71.94
2019-01-10T15:29:30.858Z,70.88
2019-01-10T15:32:02.826Z,72.05
2019-01-10T15:34:34.751Z,72.08
2019-01-10T15:37:06.981Z,73.04
2019-01-10T15:39:46.633Z,72.02
2019-01-10T15:42:18.541Z,72.00
2019-01-10T15:44:50.588Z,72.77
2019-01-10T15:47:26.732Z,72.46
2019-01-10T15:50:00.943Z,72.56
2019-01-10T15:52:32.896Z,73.65
2019-01-10T15:55:05.110Z,73.49
2019-01-10T15:57:37.201Z,72.25
2019-01-10T16:00:14.076Z,71.38
2019-01-10T16:03:04.444Z,71.52
2019-01-10T16:05:36.800Z,71.84
2019-01-10T16:08:09.818Z,71.43
2019-01-10T16:10:46.855Z,71.67
2019-01-10T16:13:20.825Z,71.52
2019-01-10T16:15:55.580Z,71.46
2019-01-10T16:18:27.516Z,71.68
2019-01-10T16:21:04.528Z,71.73
2019-01-10T16:23:41.357Z,72.19
2019-01-10T16:26:13.296Z,72.34
2019-01-10T16:28:46.958Z,72.28
2019-01-10T16:31:28.212Z,72.43
2019-01-10T16:34:00.227Z,71.46
2019-01-10T16:36:34.333Z,71.88
2019-01-10T16:39:09.351Z,72.49
2019-01-10T16:41:41.384Z,72.54
2019-01-10T16:44:13.312Z,73.20
2019-01-10T16:46:47.811Z,73.02
2019-01-10T16:49:21.047Z,73.12
2019-01-10T16:51:56.416Z,73.11
2019-01-10T16:54:29.603Z,72.97
2019-01-10T16:57:03.929Z,73.28
2019-01-10T16:59:37.125Z,73.23
2019-01-10T17:02:09.100Z,73.29
2019-01-10T17:04:42.708Z,72.87
2019-01-10T17:07:16.111Z,72.89
2019-01-10T17:09:51.921Z,72.55
2019-01-10T17:12:23.871Z,73.09
2019-01-10T17:14:55.846Z,72.66
2019-01-10T17:17:37.539Z,72.95
2019-01-10T17:20:10.517Z,73.09
2019-01-10T17:22:42.540Z,73.32
2019-01-10T17:25:14.796Z,73.22
2019-01-10T17:27:48.401Z,73.73
2019-01-10T17:30:33.693Z,73.86
2019-01-10T17:33:06.789Z,74.16
2019-01-10T17:35:40.075Z,74.35
2019-01-10T17:38:12.146Z,73.90
2019-01-10T17:40:44.107Z,73.51
2019-01-10T17:43:16.241Z,74.18
2019-01-10T17:45:48.322Z,73.93
2019-01-10T17:48:22.582Z,73.71
2019-01-10T17:50:56.231Z,73.65
2019-01-10T17:53:28.259Z,73.88
2019-01-10T17:56:01.555Z,73.41
2019-01-10T17:58:35.107Z,73.51
2019-01-10T18:01:07.106Z,73.93
2019-01-10T18:03:40.298Z,73.47
2019-01-10T18:06:14.194Z,73.60
2019-01-10T18:08:46.162Z,73.73
2019-01-10T18:11:19.532Z,73.42
2019-01-10T18:13:54.590Z,72.60
2019-01-10T18:16:26.617Z,73.01
2019-01-10T18:19:00.870Z,73.28
2019-01-10T18:21:32.916Z,73.64
2019-01-10T18:24:04.895Z,73.27
2019-01-10T18:26:38.697Z,73.45
2019-01-10T18:29:10.676Z,72.48
2019-01-10T18:31:46.171Z,72.75
2019-01-10T18:34:21.174Z,73.38
2019-01-10T18:36:51.848Z,73.42
2019-01-10T18:39:23.845Z,73.18
2019-01-10T18:41:55.796Z,73.03
2019-01-10T18:44:30.881Z,73.02
2019-01-10T18:47:02.877Z,73.30
2019-01-10T18:49:36.154Z,73.66
2019-01-10T18:52:10.038Z,73.77
2019-01-10T18:54:43.743Z,73.10
2019-01-10T18:57:15.761Z,72.35
2019-01-10T18:59:47.775Z,72.49
2019-01-10T19:02:19.819Z,73.27
2019-01-10T19:04:51.829Z,72.74
2019-01-10T19:07:30.166Z,72.43
2019-01-10T19:10:11.749Z,71.99
2019-01-10T19:12:45.496Z,71.74
2019-01-10T19:15:21.299Z,72.15
2019-01-10T19:17:53.401Z,71.72
2019-01-10T19:20:29.251Z,72.55
2019-01-10T19:23:06.864Z,72.09
2019-01-10T19:25:39.994Z,71.83
2019-01-10T19:28:12.019Z,71.30
2019-01-10T19:30:44.061Z,71.95
2019-01-10T19:33:21.903Z,72.12
2019-01-10T19:35:55.908Z,72.44
2019-01-10T19:38:27.918Z,72.79
2019-01-10T19:41:00.222Z,72.59
2019-01-10T19:43:32.252Z,72.57
2019-01-10T19:46:07.263Z,72.14
2019-01-10T19:48:40.543Z,72.90
2019-01-10T19:51:12.513Z,72.74
2019-01-10T19:53:44.562Z,72.43
2019-01-10T19:56:17.622Z,72.56
2019-01-10T19:58:51.548Z,73.00
2019-01-10T20:01:27.294Z,72.55
2019-01-10T20:04:09.197Z,72.27
2019-01-10T20:06:42.531Z,72.28
2019-01-10T20:09:16.093Z,72.62
2019-01-10T20:11:50.670Z,72.61
2019-01-10T20:14:22.591Z,72.50
2019-01-10T20:16:55.794Z,72.71
2019-01-10T20:19:30.532Z,72.33
2019-01-10T20:22:02.480Z,72.28
2019-01-10T20:24:37.231Z,71.92
2019-01-10T20:27:10.877Z,72.03
2019-01-10T20:29:42.839Z,71.86
2019-01-10T20:32:14.971Z,71.67
2019-01-10T20:34:47.009Z,71.70
2019-01-10T20:37:20.632Z,71.39
2019-01-10T20:39:52.565Z,71.78
2019-01-10T20:42:24.620Z,71.86
2019-01-10T20:44:56.512Z,71.36
2019-01-10T20:47:28.507Z,71.35
2019-01-10T20:50:00.473Z,71.44
2019-01-10T20:52:34.097Z,71.59
2019-01-10T20:55:07.938Z,72.29
2019-01-10T20:57:42.720Z,73.70
2019-01-10T21:00:18.315Z,74.05
2019-01-10T21:02:50.867Z,74.28
2019-01-10T21:05:22.878Z,74.26
2019-01-10T21:07:56.424Z,74.30
2019-01-10T21:10:28.498Z,74.13
2019-01-10T21:13:00.695Z,74.62
2019-01-10T21:15:35.627Z,74.26
2019-01-10T21:18:08.931Z,74.19
2019-01-10T21:20:42.273Z,74.51
2019-01-10T21:23:14.421Z,74.38
2019-01-10T21:25:46.304Z,73.78
2019-01-10T21:28:22.635Z,74.30
2019-01-10T21:30:53.422Z,75.30
2019-01-10T21:33:27.041Z,74.90
2019-01-10T21:35:59.282Z,74.35
2019-01-10T21:38:31.284Z,74.12
2019-01-10T21:41:04.686Z,74.39
2019-01-10T21:43:38.992Z,74.76
2019-01-10T21:46:10.944Z,75.38
2019-01-10T21:48:45.640Z,75.94
2019-01-10T21:51:17.794Z,76.05
2019-01-10T21:53:50.788Z,75.64
2019-01-10T21:56:25.285Z,75.33
2019-01-10T21:58:57.219Z,75.27
2019-01-10T22:01:33.625Z,75.18
2019-01-10T22:04:06.269Z,75.31
2019-01-10T22:06:41.205Z,75.89
2019-01-10T22:09:13.153Z,76.04
2019-01-10T22:11:45.077Z,76.19
2019-01-10T22:14:17.015Z,76.08
2019-01-10T22:16:48.999Z,76.11
2019-01-10T22:19:20.984Z,75.94
2019-01-10T22:21:52.920Z,76.43
2019-01-10T22:24:24.872Z,75.91
2019-01-10T22:26:56.794Z,75.71
2019-01-10T22:29:28.755Z,76.09
2019-01-10T22:32:00.665Z,76.30
2019-01-10T22:34:32.597Z,76.19
2019-01-10T22:37:04.517Z,76.59
2019-01-10T22:39:36.474Z,76.71
2019-01-10T22:42:08.415Z,77.05
2019-01-10T22:44:40.374Z,77.23
2019-01-10T22:47:12.330Z,77.38
2019-01-10T22:49:46.057Z,77.44
2019-01-10T22:52:17.980Z,77.50
2019-01-10T22:54:53.079Z,77.41
2019-01-10T22:57:25.006Z,77.52
2019-01-10T22:59:59.999Z,77.78
2019-01-10T23:02:33.023Z,77.64
2019-01-10T23:05:09.181Z,77.62
2019-01-10T23:07:41.100Z,77.56
2019-01-10T23:10:13.334Z,77.35
2019-01-10T23:12:48.514Z,77.16
2019-01-10T23:15:38.972Z,77.38
2019-01-10T23:18:15.317Z,77.61
2019-01-10T23:20:59.737Z,77.76
2019-01-10T23:23:31.666Z,77.91
2019-01-10T23:26:03.682Z,78.25
2019-01-10T23:28:41.055Z,78.63
2019-01-10T23:31:18.211Z,78.41
2019-01-10T23:33:51.753Z,78.30
2019-01-10T23:36:27.936Z,77.58
2019-01-10T23:39:20.628Z,77.58
2019-01-10T23:41:54.437Z,77.62
2019-01-10T23:44:26.506Z,77.51
2019-01-10T23:47:01.423Z,77.56
2019-01-10T23:49:35.664Z,77.91
2019-01-10T23:52:07.568Z,78.21
2019-01-10T23:54:39.487Z,78.38
2019-01-10T23:57:11.419Z,78.30
2019-01-10T23:59:43.330Z,78.20
